createdAt,value
2018-05-26T00:00:41.523Z,15.52
2018-05-26T00:03:08.253Z,14.87
2018-05-26T00:05:34.904Z,14.87
2018-05-26T00:08:01.539Z,16.05
2018-05-26T00:10:28.182Z,17.67
2018-05-26T00:12:54.920Z,16.17
2018-05-26T00:15:21.553Z,14.23
2018-05-26T00:17:48.188Z,14.13
2018-05-26T00:20:14.828Z,15.38
2018-05-26T00:22:47.319Z,14.38
2018-05-26T00:25:14.069Z,15.15
2018-05-26T00:27:40.828Z,16.77
2018-05-26T00:30:07.570Z,15.60
2018-05-26T00:32:34.285Z,15.35
2018-05-26T00:35:00.921Z,14.48
2018-05-26T00:37:27.558Z,15.50
2018-05-26T00:39:54.182Z,15.35
2018-05-26T00:42:20.821Z,14.87
2018-05-26T00:44:47.441Z,14.18
2018-05-26T00:47:14.109Z,15.55
2018-05-26T00:49:40.744Z,16.92
2018-05-26T00:52:07.402Z,17.55
2018-05-26T00:54:34.137Z,17.12
2018-05-26T00:57:00.773Z,20.50
2018-05-26T00:59:27.427Z,15.55
2018-05-26T01:01:54.045Z,14.20
2018-05-26T01:04:20.688Z,15.77
2018-05-26T01:06:47.464Z,16.05
2018-05-26T01:09:14.081Z,15.38
2018-05-26T01:11:40.721Z,14.07
2018-05-26T01:14:07.482Z,15.55
2018-05-26T01:16:34.111Z,13.48
2018-05-26T01:19:00.828Z,16.27
2018-05-26T01:21:27.456Z,14.20
2018-05-26T01:23:54.098Z,14.75
2018-05-26T01:26:20.725Z,14.50
2018-05-26T01:28:47.394Z,15.98
2018-05-26T01:31:14.026Z,14.73
2018-05-26T01:33:40.652Z,15.98
2018-05-26T01:36:07.292Z,18.15
2018-05-26T01:38:33.941Z,18.17
2018-05-26T01:41:00.581Z,13.88
2018-05-26T01:43:27.229Z,17.08
2018-05-26T01:45:53.845Z,13.88
2018-05-26T01:48:20.497Z,15.73
2018-05-26T01:50:47.149Z,15.70
2018-05-26T01:53:13.885Z,15.85
2018-05-26T01:55:40.631Z,15.90
2018-05-26T01:58:07.249Z,17.02
2018-05-26T02:00:33.907Z,17.52
2018-05-26T02:03:00.529Z,15.88
2018-05-26T02:05:27.178Z,15.30
2018-05-26T02:07:53.922Z,15.85
2018-05-26T02:10:20.563Z,17.75
2018-05-26T02:12:47.210Z,15.98
2018-05-26T02:15:13.938Z,16.50
2018-05-26T02:17:40.567Z,18.20
2018-05-26T02:20:07.201Z,14.95
2018-05-26T02:22:33.828Z,15.70
2018-05-26T02:25:00.474Z,15.50
2018-05-26T02:27:27.100Z,15.68
2018-05-26T02:29:53.727Z,17.48
2018-05-26T02:32:20.419Z,24.37
2018-05-26T02:34:47.149Z,16.17
2018-05-26T02:37:13.788Z,19.02
2018-05-26T02:39:40.439Z,19.17
2018-05-26T02:42:07.205Z,25.12
2018-05-26T02:44:33.844Z,18.12
2018-05-26T02:47:00.469Z,16.65
2018-05-26T02:49:27.105Z,17.80
2018-05-26T02:51:53.726Z,16.48
2018-05-26T02:54:20.358Z,18.87
2018-05-26T02:56:47.039Z,16.95
2018-05-26T02:59:13.662Z,17.70
2018-05-26T03:01:40.301Z,22.87
2018-05-26T03:04:06.560Z,17.42
2018-05-26T03:06:39.074Z,18.12
2018-05-26T03:09:11.415Z,20.20
2018-05-26T03:11:43.896Z,19.83
2018-05-26T03:14:16.356Z,23.05
2018-05-26T03:16:51.546Z,23.15
2018-05-26T03:19:18.181Z,20.40
2018-05-26T03:21:44.800Z,22.27
2018-05-26T03:24:11.468Z,23.05
2018-05-26T03:26:38.114Z,22.83
2018-05-26T03:29:04.758Z,25.52
2018-05-26T03:31:31.398Z,22.58
2018-05-26T03:33:58.134Z,25.08
2018-05-26T03:36:24.771Z,21.12
2018-05-26T03:38:51.425Z,23.70
2018-05-26T03:41:18.059Z,21.42
2018-05-26T03:43:44.796Z,21.42
2018-05-26T03:46:11.430Z,20.15
2018-05-26T03:48:38.052Z,21.85
2018-05-26T03:51:04.685Z,22.90
2018-05-26T03:53:31.308Z,21.15
2018-05-26T03:56:03.958Z,21.35
2018-05-26T03:58:36.409Z,19.60
2018-05-26T04:01:03.050Z,19.12
2018-05-26T04:03:29.677Z,19.55
2018-05-26T04:05:56.505Z,19.12
2018-05-26T04:08:23.065Z,18.70
2018-05-26T04:10:49.800Z,24.02
2018-05-26T04:13:16.439Z,20.27
2018-05-26T04:15:43.061Z,20.50
2018-05-26T04:18:09.721Z,18.87
2018-05-26T04:20:36.365Z,17.83
2018-05-26T04:23:02.984Z,18.85
2018-05-26T04:25:29.625Z,18.65
2018-05-26T04:27:56.257Z,18.58
2018-05-26T04:30:22.892Z,19.58
2018-05-26T04:32:49.521Z,20.08
2018-05-26T04:35:16.142Z,20.45
2018-05-26T04:37:42.779Z,17.62
2018-05-26T04:40:09.401Z,18.08
2018-05-26T04:42:36.118Z,19.15
2018-05-26T04:45:02.765Z,21.92
2018-05-26T04:47:29.385Z,18.40
2018-05-26T04:49:56.026Z,17.92
2018-05-26T04:52:22.697Z,18.08
2018-05-26T04:54:49.409Z,17.55
2018-05-26T04:57:16.145Z,16.42
2018-05-26T04:59:42.771Z,15.20
2018-05-26T05:02:09.411Z,16.60
2018-05-26T05:04:36.038Z,16.85
2018-05-26T05:07:02.682Z,18.20
2018-05-26T05:09:29.340Z,16.75
2018-05-26T05:11:55.976Z,16.02
2018-05-26T05:14:22.617Z,16.23
2018-05-26T05:16:49.266Z,16.25
2018-05-26T05:19:16.002Z,16.27
2018-05-26T05:21:42.642Z,15.70
2018-05-26T05:24:09.266Z,15.55
2018-05-26T05:26:35.898Z,15.60
2018-05-26T05:29:03.373Z,20.35
2018-05-26T05:31:30.018Z,15.10
2018-05-26T05:33:56.687Z,17.25
2018-05-26T05:36:23.310Z,17.90
2018-05-26T05:38:49.941Z,16.65
2018-05-26T05:41:16.677Z,17.52
2018-05-26T05:43:43.304Z,15.02
2018-05-26T05:46:09.921Z,15.85
2018-05-26T05:48:36.562Z,15.20
2018-05-26T05:51:03.194Z,17.33
2018-05-26T05:53:31.623Z,16.48
2018-05-26T05:55:58.260Z,16.58
2018-05-26T05:58:24.880Z,15.45
2018-05-26T06:00:51.535Z,16.23
2018-05-26T06:03:18.268Z,17.45
2018-05-26T06:05:44.894Z,18.67
2018-05-26T06:08:11.515Z,19.45
2018-05-26T06:10:38.149Z,19.30
2018-05-26T06:13:04.835Z,20.67
2018-05-26T06:15:31.531Z,19.95
2018-05-26T06:17:58.200Z,19.33
2018-05-26T06:20:24.845Z,19.20
2018-05-26T06:22:51.475Z,18.92
2018-05-26T06:25:18.124Z,20.42
2018-05-26T06:27:44.742Z,18.83
2018-05-26T06:30:11.361Z,19.77
2018-05-26T06:32:38.045Z,17.48
2018-05-26T06:35:04.665Z,19.98
2018-05-26T06:37:31.300Z,19.25
2018-05-26T06:39:57.933Z,17.83
2018-05-26T06:42:24.600Z,19.77
2018-05-26T06:44:51.227Z,19.35
2018-05-26T06:47:17.862Z,16.77
2018-05-26T06:49:44.522Z,16.30
2018-05-26T06:52:11.145Z,16.42
2018-05-26T06:54:37.897Z,19.02
2018-05-26T06:57:04.523Z,17.98
2018-05-26T06:59:31.145Z,17.87
2018-05-26T07:01:57.790Z,15.70
2018-05-26T07:04:24.454Z,19.10
2018-05-26T07:06:51.090Z,16.98
2018-05-26T07:09:17.730Z,17.12
2018-05-26T07:11:44.360Z,15.20
2018-05-26T07:14:11.010Z,16.75
2018-05-26T07:16:37.645Z,15.43
2018-05-26T07:19:04.276Z,15.70
2018-05-26T07:21:30.914Z,15.70
2018-05-26T07:23:57.554Z,15.20
2018-05-26T07:26:24.210Z,13.65
2018-05-26T07:28:50.839Z,15.20
2018-05-26T07:31:17.590Z,13.35
2018-05-26T07:33:44.245Z,13.02
2018-05-26T07:36:10.877Z,11.80
2018-05-26T07:38:37.535Z,12.55
2018-05-26T07:41:04.256Z,10.85
2018-05-26T07:43:30.982Z,10.20
2018-05-26T07:45:57.730Z,10.65
2018-05-26T07:48:24.349Z,10.82
2018-05-26T07:50:51.014Z,11.45
2018-05-26T07:53:17.680Z,12.73
2018-05-26T07:55:44.290Z,13.62
2018-05-26T07:58:10.921Z,10.63
2018-05-26T08:00:37.561Z,10.38
2018-05-26T08:03:04.181Z,10.05
2018-05-26T08:05:30.873Z,10.50
2018-05-26T08:07:57.497Z,10.35
2018-05-26T08:10:24.215Z,11.55
2018-05-26T08:12:50.858Z,11.32
2018-05-26T08:15:17.506Z,10.60
2018-05-26T08:17:44.242Z,12.27
2018-05-26T08:20:10.882Z,10.85
2018-05-26T08:22:37.513Z,12.37
2018-05-26T08:25:04.159Z,9.55
2018-05-26T08:27:30.827Z,11.15
2018-05-26T08:29:57.534Z,10.68
2018-05-26T08:32:24.140Z,12.02
2018-05-26T08:34:50.767Z,9.77
2018-05-26T08:37:17.397Z,10.10
2018-05-26T08:39:44.005Z,9.43
2018-05-26T08:42:10.635Z,8.63
2018-05-26T08:44:37.282Z,8.88
2018-05-26T08:47:03.901Z,8.25
2018-05-26T08:49:30.529Z,8.30
2018-05-26T08:51:57.190Z,7.07
2018-05-26T08:54:23.921Z,6.78
2018-05-26T08:56:50.570Z,6.68
2018-05-26T08:59:17.205Z,8.43
2018-05-26T09:01:43.837Z,5.60
2018-05-26T09:04:10.482Z,4.70
2018-05-26T09:06:37.110Z,5.47
2018-05-26T09:09:03.726Z,5.22
2018-05-26T09:11:30.346Z,6.03
2018-05-26T09:13:57.036Z,5.70
2018-05-26T09:16:23.777Z,5.93
2018-05-26T09:18:50.411Z,4.72
2018-05-26T09:21:17.017Z,4.85
2018-05-26T09:23:43.699Z,5.47
2018-05-26T09:26:10.335Z,4.65
2018-05-26T09:28:36.980Z,4.85
2018-05-26T09:31:03.604Z,4.40
2018-05-26T09:33:30.221Z,4.53
2018-05-26T09:35:56.902Z,5.70
2018-05-26T09:38:23.633Z,4.35
2018-05-26T09:40:50.244Z,5.28
2018-05-26T09:43:16.878Z,3.75
2018-05-26T09:45:43.497Z,4.10
2018-05-26T09:48:10.192Z,8.60
2018-05-26T09:50:36.820Z,4.10
2018-05-26T09:53:03.443Z,5.20
2018-05-26T09:55:30.068Z,4.30
2018-05-26T09:57:56.741Z,4.93
2018-05-26T10:00:23.365Z,4.20
2018-05-26T10:02:49.988Z,5.30
2018-05-26T10:05:16.664Z,8.05
2018-05-26T10:07:43.410Z,5.05
2018-05-26T10:10:10.040Z,6.25
2018-05-26T10:12:36.657Z,4.75
2018-05-26T10:15:03.316Z,5.30
2018-05-26T10:17:29.977Z,4.97
2018-05-26T10:19:56.593Z,6.10
2018-05-26T10:22:23.245Z,4.62
2018-05-26T10:24:49.861Z,4.55
2018-05-26T10:27:16.500Z,4.57
2018-05-26T10:29:43.146Z,3.20
2018-05-26T10:32:09.814Z,3.85
2018-05-26T10:34:36.443Z,4.62
2018-05-26T10:37:03.082Z,4.78
2018-05-26T10:39:29.713Z,4.40
2018-05-26T10:41:56.361Z,5.80
2018-05-26T10:44:23.004Z,4.10
2018-05-26T10:46:49.633Z,4.00
2018-05-26T10:49:16.375Z,4.72
2018-05-26T10:51:43.014Z,4.25
2018-05-26T10:54:09.634Z,4.27
2018-05-26T10:56:36.263Z,3.70
2018-05-26T10:59:02.929Z,5.17
2018-05-26T11:01:29.550Z,2.80
2018-05-26T11:03:56.217Z,2.43
2018-05-26T11:06:22.949Z,3.93
2018-05-26T11:08:49.574Z,4.17
2018-05-26T11:11:16.201Z,3.30
2018-05-26T11:13:42.842Z,6.07
2018-05-26T11:16:09.608Z,3.40
2018-05-26T11:18:36.138Z,3.77
2018-05-26T11:21:02.762Z,4.10
2018-05-26T11:23:29.421Z,5.83
2018-05-26T11:25:56.046Z,5.23
2018-05-26T11:28:22.661Z,6.20
2018-05-26T11:30:49.324Z,11.77
2018-05-26T11:33:15.932Z,9.93
2018-05-26T11:35:43.429Z,10.20
2018-05-26T11:38:10.062Z,3.70
2018-05-26T11:40:36.679Z,4.27
2018-05-26T11:43:03.300Z,5.83
2018-05-26T11:45:29.932Z,4.47
2018-05-26T11:47:56.639Z,4.10
2018-05-26T11:50:23.273Z,4.27
2018-05-26T11:52:49.904Z,4.47
2018-05-26T11:55:16.538Z,8.40
2018-05-26T11:57:43.180Z,4.47
2018-05-26T12:00:09.797Z,3.50
2018-05-26T12:02:36.422Z,4.90
2018-05-26T12:05:03.106Z,3.80
2018-05-26T12:07:29.751Z,6.00
2018-05-26T12:09:56.376Z,5.47
2018-05-26T12:12:23.017Z,4.83
2018-05-26T12:14:49.640Z,4.00
2018-05-26T12:17:16.306Z,3.60
2018-05-26T12:19:42.914Z,3.77
2018-05-26T12:22:09.588Z,5.73
2018-05-26T12:24:36.317Z,3.87
2018-05-26T12:27:02.958Z,9.70
2018-05-26T12:29:29.564Z,4.67
2018-05-26T12:31:56.188Z,3.90
2018-05-26T12:34:22.822Z,7.60
2018-05-26T12:36:49.429Z,2.67
2018-05-26T12:39:16.054Z,3.83
2018-05-26T12:41:42.665Z,3.90
2018-05-26T12:44:09.334Z,2.90
2018-05-26T12:46:35.969Z,3.33
2018-05-26T12:49:02.587Z,3.50
2018-05-26T12:51:29.224Z,3.70
2018-05-26T12:53:55.883Z,3.70
2018-05-26T12:56:22.488Z,4.27
2018-05-26T12:58:49.175Z,4.30
2018-05-26T13:01:15.786Z,3.73
2018-05-26T13:03:42.413Z,3.13
2018-05-26T13:06:09.033Z,3.47
2018-05-26T13:08:35.728Z,2.57
2018-05-26T13:11:02.378Z,2.73
2018-05-26T13:13:29.104Z,3.63
2018-05-26T13:15:55.743Z,3.30
2018-05-26T13:18:22.373Z,3.23
2018-05-26T13:20:48.980Z,2.60
2018-05-26T13:23:15.665Z,2.30
2018-05-26T13:25:42.293Z,3.10
2018-05-26T13:28:08.916Z,2.60
2018-05-26T13:30:35.529Z,3.37
2018-05-26T13:33:02.245Z,3.30
2018-05-26T13:35:28.962Z,3.63
2018-05-26T13:37:55.581Z,2.77
2018-05-26T13:40:22.209Z,2.93
2018-05-26T13:42:48.887Z,3.43
2018-05-26T13:45:15.626Z,3.43
2018-05-26T13:47:42.353Z,3.20
2018-05-26T13:50:08.993Z,3.40
2018-05-26T13:52:35.641Z,2.63
2018-05-26T13:55:02.318Z,4.03
2018-05-26T13:57:28.896Z,3.07
2018-05-26T13:59:55.521Z,2.70
2018-05-26T14:02:22.195Z,3.80
2018-05-26T14:04:48.926Z,2.90
2018-05-26T14:07:15.580Z,3.23
2018-05-26T14:09:42.218Z,3.27
2018-05-26T14:12:08.856Z,3.33
2018-05-26T14:14:35.465Z,3.73
2018-05-26T14:17:02.103Z,8.20
2018-05-26T14:19:28.721Z,4.73
2018-05-26T14:21:55.332Z,3.57
2018-05-26T14:24:21.952Z,3.63
2018-05-26T14:26:48.682Z,3.27
2018-05-26T14:29:15.318Z,3.00
2018-05-26T14:31:41.957Z,4.57
2018-05-26T14:34:08.569Z,3.10
2018-05-26T14:36:35.209Z,3.33
2018-05-26T14:39:01.833Z,3.57
2018-05-26T14:41:28.512Z,3.17
2018-05-26T14:43:55.121Z,3.40
2018-05-26T14:46:21.736Z,3.10
2018-05-26T14:48:48.434Z,2.93
2018-05-26T14:51:15.055Z,2.30
2018-05-26T14:53:41.720Z,7.10
2018-05-26T14:56:08.340Z,2.57
2018-05-26T14:58:34.959Z,3.43
2018-05-26T15:01:01.624Z,4.13
2018-05-26T15:03:28.237Z,2.77
2018-05-26T15:05:54.871Z,3.23
2018-05-26T15:08:21.490Z,2.63
2018-05-26T15:10:48.093Z,3.30
2018-05-26T15:13:14.865Z,4.90
2018-05-26T15:15:41.450Z,2.80
2018-05-26T15:18:08.078Z,2.67
2018-05-26T15:20:34.741Z,4.97
2018-05-26T15:23:01.354Z,2.90
2018-05-26T15:25:27.989Z,4.13
2018-05-26T15:27:54.602Z,2.60
2018-05-26T15:30:21.299Z,4.40
2018-05-26T15:32:47.929Z,3.13
2018-05-26T15:35:14.554Z,3.00
2018-05-26T15:37:41.178Z,3.07
2018-05-26T15:40:07.790Z,4.43
2018-05-26T15:42:34.425Z,3.23
2018-05-26T15:45:01.055Z,4.10
2018-05-26T15:47:27.670Z,4.10
2018-05-26T15:49:54.404Z,4.63
2018-05-26T15:52:21.013Z,3.87
2018-05-26T15:54:47.681Z,4.33
2018-05-26T15:57:14.332Z,3.73
2018-05-26T15:59:40.946Z,5.03
2018-05-26T16:02:07.601Z,7.43
2018-05-26T16:04:34.213Z,3.90
2018-05-26T16:07:00.888Z,4.40
2018-05-26T16:09:27.492Z,4.70
2018-05-26T16:11:54.161Z,8.23
2018-05-26T16:14:20.781Z,5.57
2018-05-26T16:16:47.432Z,6.80
2018-05-26T16:19:14.069Z,4.90
2018-05-26T16:21:40.717Z,4.37
2018-05-26T16:24:07.333Z,4.60
2018-05-26T16:26:33.953Z,4.83
2018-05-26T16:29:00.571Z,4.80
2018-05-26T16:31:27.200Z,5.00
2018-05-26T16:33:53.805Z,5.07
2018-05-26T16:36:20.457Z,4.60
2018-05-26T16:38:47.119Z,4.10
2018-05-26T16:41:13.821Z,8.10
2018-05-26T16:43:40.460Z,5.60
2018-05-26T16:46:07.068Z,7.30
2018-05-26T16:48:33.694Z,17.57
2018-05-26T16:51:00.313Z,8.13
2018-05-26T16:53:27.059Z,8.87
2018-05-26T16:55:53.691Z,8.00
2018-05-26T16:58:20.336Z,5.37
2018-05-26T17:00:46.945Z,5.30
2018-05-26T17:03:13.581Z,6.83
2018-05-26T17:05:40.198Z,5.23
2018-05-26T17:08:06.834Z,10.27
2018-05-26T17:10:33.460Z,7.27
2018-05-26T17:13:00.137Z,5.23
2018-05-26T17:15:26.761Z,8.30
2018-05-26T17:17:53.418Z,5.20
2018-05-26T17:20:20.155Z,5.63
2018-05-26T17:22:46.778Z,4.87
2018-05-26T17:25:13.398Z,4.70
2018-05-26T17:27:40.026Z,5.40
2018-05-26T17:30:06.694Z,5.63
2018-05-26T17:32:33.336Z,6.23
2018-05-26T17:34:59.949Z,6.27
2018-05-26T17:37:26.557Z,6.00
2018-05-26T17:39:53.262Z,6.00
2018-05-26T17:42:19.882Z,6.00
2018-05-26T17:44:46.509Z,6.17
2018-05-26T17:47:13.124Z,4.97
2018-05-26T17:49:39.738Z,6.20
2018-05-26T17:52:06.371Z,5.77
2018-05-26T17:54:33.033Z,7.30
2018-05-26T17:56:59.655Z,5.80
2018-05-26T17:59:26.269Z,5.87
2018-05-26T18:01:52.880Z,6.30
2018-05-26T18:04:19.558Z,7.70
2018-05-26T18:06:46.175Z,7.00
2018-05-26T18:09:12.836Z,6.70
2018-05-26T18:11:39.441Z,6.97
2018-05-26T18:14:06.058Z,8.73
2018-05-26T18:16:32.748Z,7.73
2018-05-26T18:18:59.398Z,7.17
2018-05-26T18:21:26.030Z,6.77
2018-05-26T18:23:52.636Z,8.33
2018-05-26T18:26:19.246Z,7.07
2018-05-26T18:28:45.878Z,6.17
2018-05-26T18:31:12.586Z,10.00
2018-05-26T18:33:39.226Z,6.57
2018-05-26T18:36:05.858Z,6.75
2018-05-26T18:38:32.483Z,7.57
2018-05-26T18:40:59.119Z,7.97
2018-05-26T18:43:25.737Z,10.50
2018-05-26T18:45:52.383Z,8.60
2018-05-26T18:48:19.052Z,8.75
2018-05-26T18:50:45.689Z,8.27
2018-05-26T18:53:12.338Z,9.82
2018-05-26T18:55:38.966Z,9.23
2018-05-26T18:58:05.616Z,10.35
2018-05-26T19:00:32.240Z,9.30
2018-05-26T19:02:58.889Z,12.93
2018-05-26T19:05:25.512Z,17.37
2018-05-26T19:07:52.130Z,7.68
2018-05-26T19:10:18.812Z,8.50
2018-05-26T19:12:45.446Z,7.82
2018-05-26T19:15:12.090Z,8.10
2018-05-26T19:17:38.835Z,10.68
2018-05-26T19:20:05.450Z,9.23
2018-05-26T19:22:32.102Z,10.48
2018-05-26T19:24:58.724Z,10.18
2018-05-26T19:27:25.339Z,8.30
2018-05-26T19:29:52.059Z,9.95
2018-05-26T19:32:18.673Z,8.00
2018-05-26T19:34:45.411Z,10.90
2018-05-26T19:37:12.145Z,12.00
2018-05-26T19:39:38.763Z,10.10
2018-05-26T19:42:05.389Z,9.88
2018-05-26T19:44:32.014Z,9.07
2018-05-26T19:46:58.649Z,9.35
2018-05-26T19:49:25.256Z,9.90
2018-05-26T19:51:51.887Z,10.15
2018-05-26T19:54:18.530Z,11.32
2018-05-26T19:56:45.145Z,10.95
2018-05-26T19:59:11.791Z,11.68
2018-05-26T20:01:38.437Z,9.68
2018-05-26T20:04:05.072Z,10.80
2018-05-26T20:06:31.825Z,15.57
2018-05-26T20:08:58.691Z,16.48
2018-05-26T20:11:25.321Z,10.80
2018-05-26T20:13:51.959Z,11.45
2018-05-26T20:16:18.668Z,10.68
2018-05-26T20:18:45.303Z,11.40
2018-05-26T20:21:11.939Z,9.70
2018-05-26T20:23:38.561Z,11.32
2018-05-26T20:26:05.235Z,11.52
2018-05-26T20:28:31.873Z,10.55
2018-05-26T20:30:58.522Z,10.70
2018-05-26T20:33:25.158Z,10.95
2018-05-26T20:35:51.894Z,11.10
2018-05-26T20:38:18.515Z,11.95
2018-05-26T20:40:45.175Z,11.90
2018-05-26T20:43:11.817Z,11.77
2018-05-26T20:45:38.453Z,12.63
2018-05-26T20:48:05.191Z,12.45
2018-05-26T20:50:31.817Z,13.18
2018-05-26T20:52:58.452Z,14.60
2018-05-26T20:55:25.113Z,15.68
2018-05-26T20:57:51.742Z,15.00
2018-05-26T21:00:18.382Z,17.52
2018-05-26T21:02:45.024Z,15.95
2018-05-26T21:05:11.674Z,14.73
2018-05-26T21:07:38.318Z,15.55
2018-05-26T21:10:04.946Z,15.98
2018-05-26T21:12:31.584Z,13.40
2018-05-26T21:14:58.218Z,14.55
2018-05-26T21:17:24.865Z,16.08
2018-05-26T21:19:51.502Z,14.25
2018-05-26T21:22:18.138Z,16.12
2018-05-26T21:24:44.766Z,15.32
2018-05-26T21:27:11.419Z,16.25
2018-05-26T21:29:38.033Z,15.63
2018-05-26T21:32:04.690Z,15.60
2018-05-26T21:34:31.316Z,15.75
2018-05-26T21:36:57.937Z,16.20
2018-05-26T21:39:24.572Z,15.57
2018-05-26T21:41:51.256Z,15.05
2018-05-26T21:44:17.898Z,16.37
2018-05-26T21:46:44.642Z,18.75
2018-05-26T21:49:11.271Z,15.75
2018-05-26T21:51:37.904Z,16.40
2018-05-26T21:54:04.535Z,14.25
2018-05-26T21:56:31.217Z,16.45
2018-05-26T21:58:57.935Z,16.27
2018-05-26T22:01:24.565Z,17.87
2018-05-26T22:03:51.201Z,14.73
2018-05-26T22:06:17.830Z,16.95
2018-05-26T22:08:44.481Z,16.75
2018-05-26T22:11:11.123Z,19.02
2018-05-26T22:13:37.766Z,17.48
2018-05-26T22:16:04.505Z,17.70
2018-05-26T22:18:31.134Z,16.42
2018-05-26T22:20:57.804Z,17.65
2018-05-26T22:23:24.412Z,17.48
2018-05-26T22:25:51.029Z,16.27
2018-05-26T22:28:17.670Z,21.60
2018-05-26T22:30:44.309Z,17.00
2018-05-26T22:33:10.945Z,17.62
2018-05-26T22:35:37.580Z,16.48
2018-05-26T22:38:04.209Z,18.17
2018-05-26T22:40:30.837Z,18.25
2018-05-26T22:42:57.536Z,19.98
2018-05-26T22:45:24.179Z,17.08
2018-05-26T22:47:50.797Z,18.08
2018-05-26T22:50:17.423Z,16.70
2018-05-26T22:52:44.103Z,19.90
2018-05-26T22:55:10.720Z,19.75
2018-05-26T22:57:37.367Z,18.15
2018-05-26T23:00:03.984Z,20.90
2018-05-26T23:02:30.648Z,21.12
2018-05-26T23:04:57.315Z,20.35
2018-05-26T23:07:23.947Z,20.33
2018-05-26T23:09:50.589Z,18.95
2018-05-26T23:12:17.301Z,19.70
2018-05-26T23:14:43.938Z,19.90
2018-05-26T23:17:10.699Z,18.62
2018-05-26T23:19:37.322Z,19.48
2018-05-26T23:22:04.066Z,17.65
2018-05-26T23:24:30.688Z,21.17
2018-05-26T23:26:57.313Z,18.67
2018-05-26T23:29:23.954Z,19.23
2018-05-26T23:31:50.621Z,20.77
2018-05-26T23:34:17.269Z,20.45
2018-05-26T23:36:43.929Z,21.73
2018-05-26T23:39:10.551Z,19.83
2018-05-26T23:41:37.282Z,19.58
2018-05-26T23:44:03.949Z,18.45
2018-05-26T23:46:30.656Z,17.98
2018-05-26T23:48:57.289Z,18.87
2018-05-26T23:51:23.933Z,18.30
2018-05-26T23:53:50.560Z,17.98
2018-05-26T23:56:17.190Z,17.70
2018-05-26T23:58:43.866Z,18.85
